createdAt,value
2019-02-18T00:04:26.444Z,0.30
2019-02-18T00:09:23.853Z,0.20
2019-02-18T00:14:19.599Z,0.10
2019-02-18T00:19:16.324Z,0.00
2019-02-18T00:24:12.101Z,0.00
2019-02-18T00:29:07.845Z,-0.10
2019-02-18T00:34:04.756Z,-0.10
2019-02-18T00:39:00.518Z,-0.20
2019-02-18T00:43:56.277Z,-0.20
2019-02-18T00:48:52.015Z,-0.30
2019-02-18T00:53:47.859Z,-0.30
2019-02-18T00:58:43.824Z,-0.40
2019-02-18T01:03:41.802Z,-0.40
2019-02-18T01:08:39.112Z,-0.50
2019-02-18T01:13:34.899Z,-0.50
2019-02-18T01:18:30.672Z,-0.50
2019-02-18T01:23:26.439Z,-0.50
2019-02-18T01:28:22.213Z,-0.60
2019-02-18T01:33:18.376Z,-0.70
2019-02-18T01:38:14.075Z,-0.70
2019-02-18T01:43:09.892Z,-0.80
2019-02-18T01:48:05.850Z,-0.80
2019-02-18T01:53:01.620Z,-0.90
2019-02-18T01:57:57.275Z,-1.00
2019-02-18T02:02:52.997Z,-1.00
2019-02-18T02:07:55.887Z,-1.10
2019-02-18T02:12:46.225Z,-1.10
2019-02-18T02:17:44.792Z,-1.10
2019-02-18T02:22:40.560Z,-1.20
2019-02-18T02:27:36.331Z,-1.20
2019-02-18T02:32:32.123Z,-1.20
2019-02-18T02:37:27.872Z,-1.30
2019-02-18T02:42:23.626Z,-1.30
2019-02-18T02:47:19.415Z,-1.40
2019-02-18T02:52:15.158Z,-1.30
2019-02-18T02:57:10.877Z,-1.30
2019-02-18T03:02:06.761Z,-1.30
2019-02-18T03:07:04.089Z,-1.40
2019-02-18T03:11:59.863Z,-1.40
2019-02-18T03:16:55.642Z,-1.40
2019-02-18T03:21:53.982Z,-1.50
2019-02-18T03:26:49.670Z,-1.50
2019-02-18T03:31:45.457Z,-1.50
2019-02-18T03:36:41.629Z,-1.60
2019-02-18T03:41:37.474Z,-1.60
2019-02-18T03:46:33.330Z,-1.60
2019-02-18T03:51:29.056Z,-1.70
2019-02-18T03:56:24.837Z,-1.70
2019-02-18T04:01:20.721Z,-1.70
2019-02-18T04:06:17.033Z,-1.80
2019-02-18T04:11:12.803Z,-1.80
2019-02-18T04:16:08.536Z,-1.80
2019-02-18T04:21:04.354Z,-1.80
2019-02-18T04:26:00.145Z,-1.90
2019-02-18T04:30:58.130Z,-1.90
2019-02-18T04:35:54.465Z,-1.90
2019-02-18T04:40:51.274Z,-1.90
2019-02-18T04:45:47.050Z,-2.00
2019-02-18T04:50:42.834Z,-2.00
2019-02-18T04:55:38.534Z,-2.10
2019-02-18T05:00:34.265Z,-2.20
2019-02-18T05:05:30.056Z,-2.10
2019-02-18T05:10:25.882Z,-2.20
2019-02-18T05:15:21.637Z,-2.20
2019-02-18T05:20:17.462Z,-2.20
2019-02-18T05:25:13.917Z,-2.20
2019-02-18T05:30:09.750Z,-2.30
2019-02-18T05:35:05.607Z,-2.50
2019-02-18T05:40:01.405Z,-2.50
2019-02-18T05:44:57.209Z,-2.50
2019-02-18T05:49:53.015Z,-2.60
2019-02-18T05:54:48.849Z,-2.60
2019-02-18T05:59:44.689Z,-2.70
2019-02-18T06:04:40.534Z,-2.60
2019-02-18T06:09:36.656Z,-2.60
2019-02-18T06:14:33.498Z,-2.50
2019-02-18T06:19:29.306Z,-2.50
2019-02-18T06:24:25.570Z,-2.50
2019-02-18T06:29:21.540Z,-2.40
2019-02-18T06:34:19.691Z,-2.30
2019-02-18T06:39:16.148Z,-2.20
2019-02-18T06:44:13.470Z,-2.10
2019-02-18T06:49:17.578Z,-1.90
2019-02-18T06:54:13.336Z,-1.80
2019-02-18T06:59:17.266Z,-1.60
2019-02-18T07:04:47.477Z,-1.40
2019-02-18T07:10:07.874Z,-1.20
2019-02-18T07:15:03.687Z,-1.00
2019-02-18T07:20:01.352Z,-0.80
2019-02-18T07:24:57.860Z,-0.70
2019-02-18T07:29:53.734Z,-0.60
2019-02-18T07:34:49.610Z,-0.40
2019-02-18T07:39:45.501Z,-0.20
2019-02-18T07:44:41.211Z,-0.10
2019-02-18T07:49:36.984Z,0.20
2019-02-18T07:54:32.824Z,0.30
2019-02-18T07:59:28.886Z,0.50
2019-02-18T08:04:47.629Z,0.70
2019-02-18T08:09:45.342Z,0.90
2019-02-18T08:14:41.135Z,1.10
2019-02-18T08:19:36.876Z,1.40
2019-02-18T08:24:32.673Z,1.60
2019-02-18T08:29:30.040Z,1.80
2019-02-18T08:34:26.746Z,2.10
2019-02-18T08:39:22.461Z,2.40
2019-02-18T08:44:18.226Z,2.60
2019-02-18T08:49:14.075Z,2.90
2019-02-18T08:54:09.883Z,3.30
2019-02-18T08:59:05.732Z,3.60
2019-02-18T09:04:01.476Z,4.00
2019-02-18T09:08:57.663Z,4.40
2019-02-18T09:13:53.506Z,4.70
2019-02-18T09:18:49.332Z,5.10
2019-02-18T09:23:50.559Z,5.30
2019-02-18T09:28:46.353Z,5.70
2019-02-18T09:33:42.157Z,6.10
2019-02-18T09:38:38.053Z,6.50
2019-02-18T09:43:33.802Z,6.90
2019-02-18T09:48:31.761Z,7.20
2019-02-18T09:53:27.499Z,7.50
2019-02-18T09:58:23.344Z,7.80
2019-02-18T10:03:19.272Z,8.20
2019-02-18T10:08:15.284Z,8.70
2019-02-18T10:13:11.101Z,9.30
2019-02-18T10:18:07.160Z,9.80
2019-02-18T10:23:03.114Z,10.40
2019-02-18T10:27:59.938Z,10.80
2019-02-18T10:32:55.818Z,11.30
2019-02-18T10:37:54.986Z,11.70
2019-02-18T10:42:51.307Z,12.10
2019-02-18T10:47:47.248Z,12.50
2019-02-18T10:52:43.186Z,12.80
2019-02-18T10:57:39.917Z,13.30
2019-02-18T11:02:35.818Z,13.60
2019-02-18T11:07:31.570Z,13.90
2019-02-18T11:12:28.457Z,14.20
2019-02-18T11:17:24.246Z,14.30
2019-02-18T11:22:20.053Z,14.50
2019-02-18T11:27:16.065Z,14.90
2019-02-18T11:32:11.884Z,15.30
2019-02-18T11:37:07.630Z,15.50
2019-02-18T11:42:03.384Z,15.60
2019-02-18T11:47:00.522Z,15.90
2019-02-18T11:52:00.101Z,16.30
2019-02-18T11:56:54.788Z,16.40
2019-02-18T12:01:50.578Z,16.90
2019-02-18T12:06:49.396Z,17.40
2019-02-18T12:11:45.322Z,17.90
2019-02-18T12:16:41.142Z,18.10
2019-02-18T12:21:36.946Z,18.00
2019-02-18T12:26:32.845Z,18.40
2019-02-18T12:31:31.774Z,18.60
2019-02-18T12:36:27.726Z,18.70
2019-02-18T12:41:23.838Z,19.20
2019-02-18T12:46:19.874Z,19.40
2019-02-18T12:51:16.009Z,19.60
2019-02-18T12:56:12.053Z,19.70
2019-02-18T13:01:08.659Z,20.00
2019-02-18T13:06:02.842Z,20.20
2019-02-18T13:10:58.986Z,20.40
2019-02-18T13:15:55.178Z,20.50
2019-02-18T13:20:51.226Z,20.40
2019-02-18T13:25:47.613Z,20.70
2019-02-18T13:30:45.258Z,20.70
2019-02-18T13:35:41.570Z,21.00
2019-02-18T13:40:37.776Z,21.20
2019-02-18T13:45:34.235Z,21.30
2019-02-18T13:50:30.411Z,21.30
2019-02-18T13:55:26.872Z,21.40
2019-02-18T14:00:25.806Z,21.80
2019-02-18T14:05:22.365Z,22.20
2019-02-18T14:10:18.907Z,22.40
2019-02-18T14:15:15.762Z,22.60
2019-02-18T14:20:14.169Z,22.70
2019-02-18T14:25:11.303Z,22.90
2019-02-18T14:30:08.951Z,22.90
2019-02-18T14:35:11.356Z,22.90
2019-02-18T14:40:10.670Z,23.00
2019-02-18T14:45:07.258Z,23.40
2019-02-18T14:50:06.227Z,23.70
2019-02-18T14:55:02.840Z,23.40
2019-02-18T14:59:58.960Z,23.20
2019-02-18T15:04:57.423Z,23.10
2019-02-18T15:09:53.467Z,22.50
2019-02-18T15:15:07.595Z,20.80
2019-02-18T15:20:04.098Z,18.50
2019-02-18T15:25:01.806Z,17.20
2019-02-18T15:29:58.042Z,16.40
2019-02-18T15:34:54.027Z,15.90
2019-02-18T15:39:50.692Z,15.40
2019-02-18T15:44:46.630Z,15.00
2019-02-18T15:49:42.993Z,14.60
2019-02-18T15:54:39.082Z,14.10
2019-02-18T15:59:35.173Z,13.70
2019-02-18T16:04:31.730Z,13.40
2019-02-18T16:09:27.751Z,13.00
2019-02-18T16:14:24.161Z,12.70
2019-02-18T16:19:20.038Z,12.40
2019-02-18T16:24:19.944Z,12.20
2019-02-18T16:29:15.074Z,12.00
2019-02-18T16:34:10.943Z,11.80
2019-02-18T16:39:07.997Z,11.60
2019-02-18T16:44:07.067Z,11.30
2019-02-18T16:49:03.129Z,11.10
2019-02-18T16:53:59.556Z,10.80
2019-02-18T16:58:58.318Z,10.50
2019-02-18T17:03:54.189Z,10.20
2019-02-18T17:08:50.313Z,9.80
2019-02-18T17:13:46.382Z,9.60
2019-02-18T17:18:42.761Z,9.50
2019-02-18T17:23:39.584Z,9.30
2019-02-18T17:28:36.252Z,9.10
2019-02-18T17:33:32.171Z,8.90
2019-02-18T17:38:29.358Z,8.50
2019-02-18T17:43:28.335Z,8.30
2019-02-18T17:48:25.730Z,8.10
2019-02-18T17:53:21.519Z,7.80
2019-02-18T17:58:17.472Z,7.60
2019-02-18T18:03:13.998Z,7.50
2019-02-18T18:08:10.503Z,7.30
2019-02-18T18:13:06.509Z,7.20
2019-02-18T18:18:02.619Z,7.00
2019-02-18T18:22:58.508Z,6.80
2019-02-18T18:27:54.676Z,6.60
2019-02-18T18:32:50.478Z,6.40
2019-02-18T18:37:46.412Z,6.30
2019-02-18T18:42:42.920Z,6.20
2019-02-18T18:47:38.778Z,5.90
2019-02-18T18:52:34.692Z,5.80
2019-02-18T18:57:31.133Z,5.70
2019-02-18T19:02:28.674Z,5.50
2019-02-18T19:07:24.696Z,5.40
2019-02-18T19:12:21.189Z,5.30
2019-02-18T19:17:17.217Z,5.10
2019-02-18T19:22:13.436Z,5.00
2019-02-18T19:27:09.428Z,4.90
2019-02-18T19:32:06.541Z,4.70
2019-02-18T19:37:05.860Z,4.60
2019-02-18T19:42:01.737Z,4.50
2019-02-18T19:46:57.765Z,4.30
2019-02-18T19:51:55.283Z,4.20
2019-02-18T19:56:52.599Z,4.10
2019-02-18T20:01:51.497Z,4.00
2019-02-18T20:06:47.843Z,3.90
2019-02-18T20:12:03.072Z,3.70
2019-02-18T20:16:59.047Z,3.60
2019-02-18T20:21:54.952Z,3.50
2019-02-18T20:26:51.420Z,3.40
2019-02-18T20:31:47.257Z,3.30
2019-02-18T20:36:43.189Z,3.30
2019-02-18T20:41:39.467Z,3.20
2019-02-18T20:46:35.838Z,3.10
2019-02-18T20:51:33.042Z,3.00
2019-02-18T20:56:30.660Z,2.80
2019-02-18T21:01:27.012Z,2.70
2019-02-18T21:06:25.856Z,2.60
2019-02-18T21:11:23.475Z,2.50
2019-02-18T21:16:19.404Z,2.40
2019-02-18T21:21:19.908Z,2.40
2019-02-18T21:26:15.897Z,2.30
2019-02-18T21:31:11.920Z,2.20
2019-02-18T21:36:09.181Z,2.10
2019-02-18T21:41:05.160Z,2.10
2019-02-18T21:46:01.448Z,2.00
2019-02-18T21:50:59.081Z,1.90
2019-02-18T21:55:55.480Z,1.90
2019-02-18T22:00:51.744Z,1.90
2019-02-18T22:05:47.852Z,1.70
2019-02-18T22:10:44.092Z,1.70
2019-02-18T22:15:40.420Z,1.60
2019-02-18T22:20:36.906Z,1.50
2019-02-18T22:25:33.238Z,1.50
2019-02-18T22:30:29.350Z,1.40
2019-02-18T22:35:26.010Z,1.30
2019-02-18T22:40:21.958Z,1.20
2019-02-18T22:45:19.746Z,1.10
2019-02-18T22:50:15.857Z,1.00
2019-02-18T22:55:12.625Z,1.00
2019-02-18T23:00:17.241Z,0.90
2019-02-18T23:05:14.670Z,0.80
2019-02-18T23:10:10.724Z,0.80
2019-02-18T23:15:06.856Z,0.80
2019-02-18T23:20:03.006Z,0.70
2019-02-18T23:24:59.466Z,0.60
2019-02-18T23:29:55.863Z,0.60
2019-02-18T23:34:51.956Z,0.60
2019-02-18T23:39:47.957Z,0.60
2019-02-18T23:44:45.861Z,0.50
2019-02-18T23:49:42.257Z,0.40
2019-02-18T23:54:38.353Z,0.40
2019-02-18T23:59:34.581Z,0.40
